Time;durP1;ratioP1;P1;durP2;ratioP2;P2;SDS_P1;SDS_P2;PMS_P1;PMS_P2;Temp;Humidity;BMP_temperature;BMP_pressure;BME280_temperature;BME280_humidity;BME280_pressure;Samples;Min_cycle;Max_cycle;Signal;HPM_P1;HPM_P2
2022/01/18 00:02:05;;;;;;;3.93;2.00;;;3.20;99.90;;;;;;5019350;28;20244;-87
2022/01/18 00:04:30;;;;;;;2.03;1.73;;;3.10;99.90;;;;;;5039208;28;20182;-87
2022/01/18 00:06:56;;;;;;;2.70;2.20;;;3.10;99.90;;;;;;5038000;28;20313;-87
2022/01/18 00:09:24;;;;;;;3.90;2.10;;;3.10;99.90;;;;;;5018449;28;20651;-88
2022/01/18 00:11:59;;;;;;;6.72;2.10;;;3.10;99.90;;;;;;5017973;28;20269;-87
2022/01/18 00:14:28;;;;;;;4.15;2.30;;;3.10;99.90;;;;;;5017669;28;20181;-88
2022/01/18 00:19:41;;;;;;;8.00;2.80;;;3.00;99.90;;;;;;5036575;28;20291;-90
2022/01/18 00:22:15;;;;;;;5.97;2.40;;;3.00;99.90;;;;;;5017709;28;20265;-89
2022/01/18 00:24:42;;;;;;;5.07;2.83;;;3.00;99.90;;;;;;5017729;28;20288;-90
2022/01/18 00:27:11;;;;;;;5.28;2.55;;;3.00;99.90;;;;;;5020722;28;20186;-89
2022/01/18 00:29:41;;;;;;;6.53;2.17;;;3.00;99.90;;;;;;5035980;28;20252;-90
2022/01/18 00:34:37;;;;;;;6.97;2.20;;;2.90;99.90;;;;;;5037056;28;20171;-90
2022/01/18 00:39:32;;;;;;;3.28;2.17;;;2.90;99.90;;;;;;5035375;28;20171;-86
2022/01/18 00:41:58;;;;;;;2.90;2.10;;;2.90;99.90;;;;;;5034996;28;20239;-88
2022/01/18 00:44:24;;;;;;;4.18;1.85;;;2.80;99.90;;;;;;5017636;28;20607;-87
2022/01/18 00:46:50;;;;;;;3.60;1.90;;;2.80;99.90;;;;;;5017559;28;20242;-87
2022/01/18 00:49:16;;;;;;;8.38;2.53;;;2.80;99.90;;;;;;5018574;28;20178;-88
2022/01/18 00:51:45;;;;;;;3.58;2.40;;;2.80;99.90;;;;;;5035404;28;20636;-89
2022/01/18 00:54:21;;;;;;;4.70;2.70;;;2.80;99.90;;;;;;5034965;28;20566;-89
2022/01/18 00:56:48;;;;;;;4.68;2.78;;;2.80;99.90;;;;;;5018041;28;20189;-89
2022/01/18 00:59:14;;;;;;;3.25;2.90;;;2.70;99.90;;;;;;5019363;28;20182;-87
2022/01/18 01:01:39;;;;;;;4.50;2.70;;;2.70;99.90;;;;;;5019124;28;20717;-88
2022/01/18 01:04:06;;;;;;;6.00;3.23;;;2.70;99.90;;;;;;5036197;28;20262;-87
2022/01/18 01:06:33;;;;;;;6.60;3.65;;;2.70;99.90;;;;;;5016456;28;20246;-87
2022/01/18 01:08:59;;;;;;;8.65;3.40;;;2.70;99.90;;;;;;5017228;28;20695;-86
2022/01/18 01:11:28;;;;;;;4.30;3.20;;;2.70;99.90;;;;;;5039554;28;20178;-87
2022/01/18 01:13:58;;;;;;;5.25;3.30;;;2.70;99.90;;;;;;5054903;28;20390;-87
2022/01/18 01:16:48;;;;;;;4.65;3.00;;;2.70;99.90;;;;;;5017199;28;20285;-88
2022/01/18 01:19:30;;;;;;;5.95;4.00;;;2.60;99.90;;;;;;5018291;28;20179;-87
2022/01/18 01:35:48;;;;;;;4.85;3.38;;;2.50;99.90;;;;;;5041189;28;20204;-88
2022/01/18 01:46:26;;;;;;;6.95;2.40;;;2.40;99.90;;;;;;5041696;28;20222;-88
2022/01/18 01:48:55;;;;;;;3.35;2.20;;;2.40;99.90;;;;;;5023306;28;20209;-87
2022/01/18 01:51:28;;;;;;;4.63;3.17;;;2.40;99.90;;;;;;5023178;28;20563;-87
2022/01/18 01:53:54;;;;;;;4.25;2.55;;;2.40;99.90;;;;;;5033207;28;20592;-87
2022/01/18 01:56:19;;;;;;;7.87;3.60;;;2.40;99.90;;;;;;5023069;28;20301;-86
2022/01/18 01:58:45;;;;;;;4.53;3.07;;;2.40;99.90;;;;;;5023784;28;20209;-88
2022/01/18 02:01:11;;;;;;;4.00;2.53;;;2.40;99.90;;;;;;5023937;28;20247;-86
2022/01/18 02:03:36;;;;;;;3.83;2.40;;;2.30;99.90;;;;;;5023263;28;20422;-88
2022/01/18 02:06:03;;;;;;;7.33;3.27;;;2.30;99.90;;;;;;5023583;28;20303;-88
2022/01/18 02:08:29;;;;;;;5.25;2.78;;;2.30;99.90;;;;;;5024643;28;20317;-87
2022/01/18 02:10:54;;;;;;;8.73;2.77;;;2.30;99.90;;;;;;5023226;28;20264;-87
2022/01/18 02:13:20;;;;;;;3.80;2.50;;;2.30;99.90;;;;;;5023384;28;20185;-87
2022/01/18 02:16:13;;;;;;;4.25;2.95;;;2.30;99.90;;;;;;5023521;28;20206;-88
2022/01/18 02:24:04;;;;;;;5.90;3.15;;;2.20;99.90;;;;;;5041754;28;20237;-88
2022/01/18 02:26:30;;;;;;;9.00;3.85;;;2.10;99.90;;;;;;5030032;28;20213;-87
2022/01/18 02:29:01;;;;;;;3.45;2.80;;;2.10;99.90;;;;;;5034008;28;20180;-87
2022/01/18 02:31:28;;;;;;;4.63;2.72;;;2.10;99.90;;;;;;5023896;28;20201;-86
2022/01/18 02:33:54;;;;;;;5.60;2.65;;;2.10;99.90;;;;;;5040517;28;20182;-86
2022/01/18 02:36:19;;;;;;;5.30;3.37;;;2.10;99.90;;;;;;5022768;28;20214;-86
2022/01/18 02:38:47;;;;;;;5.37;3.77;;;2.00;99.90;;;;;;5026072;28;20175;-87
2022/01/18 02:41:30;;;;;;;4.93;2.90;;;2.00;99.90;;;;;;5040916;28;20217;-87
2022/01/18 02:44:12;;;;;;;5.82;3.20;;;2.00;99.90;;;;;;5019570;28;20171;-87
2022/01/18 02:46:39;;;;;;;9.80;3.70;;;2.00;99.90;;;;;;5021126;28;20249;-87
2022/01/18 02:49:05;;;;;;;3.35;3.00;;;2.00;99.90;;;;;;5019778;28;20217;-87
2022/01/18 02:51:32;;;;;;;5.68;3.15;;;1.90;99.90;;;;;;5019698;28;20623;-87
2022/01/18 02:54:08;;;;;;;4.38;2.75;;;1.90;99.90;;;;;;5020108;28;20221;-87
2022/01/18 02:56:42;;;;;;;6.88;3.40;;;1.90;99.90;;;;;;5019717;28;20738;-87
2022/01/18 02:59:16;;;;;;;6.97;2.80;;;1.90;99.90;;;;;;5019666;28;20186;-86
2022/01/18 03:04:27;;;;;;;10.20;3.10;;;1.80;99.90;;;;;;5058868;28;20169;-87
2022/01/18 03:06:53;;;;;;;5.17;3.00;;;1.80;99.90;;;;;;5021171;28;20333;-88
2022/01/18 03:09:18;;;;;;;6.50;3.40;;;1.80;99.90;;;;;;5036615;28;20423;-86
2022/01/18 03:11:45;;;;;;;5.73;3.60;;;1.80;99.90;;;;;;5019090;28;20461;-87
2022/01/18 03:14:11;;;;;;;7.28;3.15;;;1.80;99.90;;;;;;5019284;28;20183;-87
2022/01/18 03:16:36;;;;;;;9.27;4.40;;;1.80;99.90;;;;;;5018860;28;20249;-87
2022/01/18 03:19:02;;;;;;;6.77;4.70;;;1.80;99.90;;;;;;5038662;28;20261;-87
2022/01/18 03:21:28;;;;;;;9.65;4.00;;;1.80;99.90;;;;;;5019009;28;20605;-87
2022/01/18 03:24:10;;;;;;;6.50;3.47;;;1.80;99.90;;;;;;5019225;28;20183;-88
2022/01/18 03:28:03;;;;;;;8.38;3.75;;;1.80;99.90;;;;;;5018752;28;20258;-87
2022/01/18 03:29:22;;;;;;;5.30;3.67;;;1.80;99.90;;;;;;5036274;28;20261;-86
2022/01/18 03:31:48;;;;;;;5.63;3.27;;;1.70;99.90;;;;;;5020855;28;20221;-86
2022/01/18 03:34:14;;;;;;;5.27;3.00;;;1.70;99.90;;;;;;5019293;28;20174;-87
2022/01/18 03:36:39;;;;;;;4.53;3.10;;;1.70;99.90;;;;;;5027184;28;20206;-86
2022/01/18 03:39:06;;;;;;;4.17;2.60;;;1.70;99.90;;;;;;5045780;28;20190;-87
2022/01/18 03:41:31;;;;;;;6.90;2.92;;;1.60;99.90;;;;;;5042744;28;20194;-87
2022/01/18 03:43:57;;;;;;;6.17;2.87;;;1.60;99.90;;;;;;5037983;28;20205;-87
2022/01/18 03:46:24;;;;;;;4.63;2.97;;;1.60;99.90;;;;;;5041833;28;20218;-86
2022/01/18 03:48:51;;;;;;;11.38;3.45;;;1.60;99.90;;;;;;5019014;28;20403;-88
2022/01/18 03:51:18;;;;;;;10.20;3.35;;;1.60;99.90;;;;;;5018562;28;20198;-86
2022/01/18 03:53:44;;;;;;;4.38;3.25;;;1.60;99.90;;;;;;5035736;28;20206;-86
2022/01/18 03:56:10;;;;;;;4.65;3.08;;;1.60;99.90;;;;;;5017911;28;20229;-86
2022/01/18 03:58:36;;;;;;;6.22;3.35;;;1.60;99.90;;;;;;5035979;28;20659;-86
2022/01/18 04:01:03;;;;;;;4.05;3.45;;;1.60;99.90;;;;;;5019192;28;20229;-86
2022/01/18 04:03:29;;;;;;;9.23;4.00;;;1.60;99.90;;;;;;5017972;28;20593;-86
2022/01/18 04:05:56;;;;;;;4.57;3.10;;;1.60;99.90;;;;;;5017975;28;20276;-87
2022/01/18 04:08:22;;;;;;;6.28;3.08;;;1.50;99.90;;;;;;5017703;28;20238;-87
2022/01/18 04:10:48;;;;;;;9.90;3.50;;;1.50;99.90;;;;;;5035696;28;20201;-86
2022/01/18 04:13:14;;;;;;;7.78;3.88;;;1.50;99.90;;;;;;5035361;28;20170;-86
2022/01/18 04:15:40;;;;;;;4.27;3.13;;;1.50;99.90;;;;;;5027138;28;20540;-86
2022/01/18 04:18:18;;;;;;;9.35;3.63;;;1.50;99.90;;;;;;5022798;28;20539;-87
2022/01/18 04:28:56;;;;;;;6.97;3.10;;;1.50;99.90;;;;;;5035314;28;20619;-86
2022/01/18 04:31:23;;;;;;;4.65;3.33;;;1.50;99.90;;;;;;5019038;28;20201;-86
2022/01/18 04:33:49;;;;;;;9.02;3.13;;;1.50;99.90;;;;;;5018121;28;20664;-87
2022/01/18 04:36:16;;;;;;;7.15;3.83;;;1.50;99.90;;;;;;5017416;28;20571;-87
2022/01/18 04:38:41;;;;;;;6.10;3.83;;;1.50;99.90;;;;;;5034895;28;20555;-86
2022/01/18 04:41:11;;;;;;;8.97;3.70;;;1.50;99.90;;;;;;5035141;28;20198;-86
2022/01/18 04:43:51;;;;;;;9.63;4.35;;;1.50;99.90;;;;;;5018090;28;20649;-86
2022/01/18 04:49:02;;;;;;;5.80;3.22;;;1.40;99.90;;;;;;5035128;28;20255;-86
2022/01/18 04:51:28;;;;;;;4.30;3.22;;;1.40;99.90;;;;;;5017148;28;20260;-86
2022/01/18 04:53:57;;;;;;;7.07;4.07;;;1.40;99.90;;;;;;5017067;28;20653;-87
2022/01/18 04:58:56;;;;;;;8.18;3.45;;;1.40;99.90;;;;;;5034919;28;20178;-86
2022/01/18 05:01:22;;;;;;;6.75;3.30;;;1.40;99.90;;;;;;5017280;28;20675;-86
2022/01/18 05:03:48;;;;;;;11.20;3.83;;;1.40;99.90;;;;;;5033030;28;20290;-86
2022/01/18 05:06:17;;;;;;;8.43;2.80;;;1.40;99.90;;;;;;5014616;28;20304;-86
2022/01/18 05:08:42;;;;;;;6.57;2.97;;;1.40;99.90;;;;;;5015943;28;20190;-86
2022/01/18 05:11:14;;;;;;;6.23;3.60;;;1.40;99.90;;;;;;5015991;28;20210;-86
2022/01/18 05:19:38;;;;;;;3.13;2.20;;;1.50;99.90;;;;;;5045769;28;20173;-86
2022/01/18 05:24:30;;;;;;;7.68;3.60;;;2.10;99.90;;;;;;5034265;28;20260;-86
2022/01/18 05:26:57;;;;;;;7.93;3.40;;;2.40;99.90;;;;;;5012848;28;20711;-85
2022/01/18 05:29:23;;;;;;;8.82;3.20;;;2.60;99.90;;;;;;5017821;28;20174;-86
2022/01/18 05:31:49;;;;;;;9.02;2.97;;;2.80;99.90;;;;;;5028452;28;20559;-86
2022/01/18 05:34:15;;;;;;;6.35;2.50;;;3.00;99.90;;;;;;5010490;28;20225;-86
2022/01/18 05:36:41;;;;;;;9.13;2.47;;;3.10;99.90;;;;;;5032066;28;20212;-86
2022/01/18 05:39:11;;;;;;;13.75;3.88;;;3.30;99.90;;;;;;5013337;28;20406;-86
2022/01/18 05:41:41;;;;;;;7.45;3.33;;;3.40;99.90;;;;;;5031877;28;20198;-86
2022/01/18 05:44:07;;;;;;;6.85;3.28;;;3.20;99.90;;;;;;5032001;28;20198;-86
2022/01/18 05:46:33;;;;;;;5.47;3.70;;;3.00;99.90;;;;;;5027138;28;20707;-87
2022/01/18 05:49:01;;;;;;;5.63;3.10;;;2.80;99.90;;;;;;5016315;28;20439;-86
2022/01/18 05:51:31;;;;;;;7.22;3.30;;;2.60;99.90;;;;;;5009743;28;20205;-86
2022/01/18 05:53:56;;;;;;;6.35;3.50;;;2.40;99.90;;;;;;5012462;28;20210;-86
2022/01/18 05:56:23;;;;;;;6.33;3.33;;;2.20;99.90;;;;;;5025929;28;20230;-87
2022/01/18 05:58:49;;;;;;;12.57;7.13;;;2.00;99.90;;;;;;5011426;28;20183;-86
2022/01/18 06:01:27;;;;;;;7.23;4.00;;;1.90;99.90;;;;;;5023879;28;20213;-86
2022/01/18 06:09:03;;;;;;;19.17;6.35;;;1.60;99.90;;;;;;5034203;28;20431;-86
2022/01/18 06:11:29;;;;;;;5.50;3.42;;;1.50;99.90;;;;;;5018904;28;20203;-86
2022/01/18 06:13:55;;;;;;;14.47;6.73;;;1.40;99.90;;;;;;5018138;28;20262;-86
2022/01/18 06:16:20;;;;;;;12.30;5.50;;;1.40;99.90;;;;;;5033329;28;20546;-86
2022/01/18 06:18:46;;;;;;;5.13;3.53;;;1.30;99.90;;;;;;5013661;28;20410;-86
2022/01/18 06:21:12;;;;;;;11.63;5.03;;;1.20;99.90;;;;;;5035257;28;20261;-85
2022/01/18 06:23:38;;;;;;;12.53;4.60;;;1.20;99.90;;;;;;5024160;28;20566;-85
2022/01/18 06:26:04;;;;;;;11.50;4.90;;;1.10;99.90;;;;;;5027198;28;20225;-85
2022/01/18 06:28:32;;;;;;;8.95;3.80;;;1.20;99.90;;;;;;5024593;28;20191;-86
2022/01/18 06:30:58;;;;;;;8.82;4.93;;;1.20;99.90;;;;;;5020468;28;20356;-86
2022/01/18 06:33:24;;;;;;;10.68;6.35;;;1.30;99.90;;;;;;5043599;28;20197;-87
2022/01/18 06:35:50;;;;;;;14.77;7.20;;;1.30;99.90;;;;;;5033342;28;20304;-86
2022/01/18 06:38:16;;;;;;;14.30;8.45;;;1.30;99.90;;;;;;5024346;28;20571;-86
2022/01/18 06:40:41;;;;;;;13.27;7.23;;;1.20;99.90;;;;;;5032548;28;20216;-88
2022/01/18 06:43:07;;;;;;;9.00;5.00;;;1.20;99.90;;;;;;5025466;28;20186;-89
2022/01/18 06:45:33;;;;;;;11.30;5.03;;;1.20;99.90;;;;;;5036656;28;20620;-89
2022/01/18 06:47:59;;;;;;;6.43;3.87;;;1.20;99.90;;;;;;5015918;28;20240;-90
2022/01/18 06:50:25;;;;;;;9.63;4.03;;;1.20;99.90;;;;;;4996621;28;20455;-88
2022/01/18 06:52:51;;;;;;;6.33;2.90;;;1.20;99.90;;;;;;5044850;28;20435;-89
2022/01/18 06:55:17;;;;;;;9.63;4.10;;;1.20;99.90;;;;;;5018095;28;20422;-89
2022/01/18 06:57:43;;;;;;;7.63;3.72;;;1.20;99.90;;;;;;5017953;28;20455;-90
2022/01/18 07:00:09;;;;;;;14.27;3.10;;;1.20;99.90;;;;;;5020776;28;20207;-90
2022/01/18 07:02:35;;;;;;;6.05;3.70;;;1.20;99.90;;;;;;5016442;28;20175;-89
2022/01/18 07:05:01;;;;;;;5.10;3.10;;;1.20;99.90;;;;;;5014434;28;20221;-89
2022/01/18 07:07:26;;;;;;;7.67;3.77;;;1.30;99.90;;;;;;5044996;28;20226;-89
2022/01/18 07:09:52;;;;;;;7.00;3.10;;;1.30;99.90;;;;;;5038326;28;20576;-88
2022/01/18 07:12:18;;;;;;;11.70;3.37;;;1.30;99.90;;;;;;5020755;28;20179;-89
2022/01/18 07:14:44;;;;;;;6.00;3.13;;;1.40;99.90;;;;;;5020512;28;20222;-90
2022/01/18 07:17:10;;;;;;;7.80;3.47;;;1.40;99.90;;;;;;5007849;28;20175;-90
2022/01/18 07:19:37;;;;;;;8.02;3.20;;;1.50;99.90;;;;;;5016470;28;20182;-90
2022/01/18 07:22:03;;;;;;;13.98;3.50;;;1.60;99.90;;;;;;5019288;28;20224;-88
2022/01/18 07:24:41;;;;;;;8.02;3.50;;;1.80;99.90;;;;;;5024205;28;20190;-90
2022/01/18 07:27:08;;;;;;;5.25;3.65;;;2.00;99.90;;;;;;5015116;28;20226;-89
2022/01/18 07:29:35;;;;;;;7.55;3.17;;;2.20;99.90;;;;;;5010880;28;20588;-90
2022/01/18 07:32:01;;;;;;;5.30;3.70;;;2.30;99.90;;;;;;5038125;28;20182;-88
2022/01/18 07:34:27;;;;;;;4.53;3.13;;;2.30;99.90;;;;;;5042064;28;20225;-90
2022/01/18 07:36:53;;;;;;;7.72;3.72;;;2.40;99.90;;;;;;5016913;28;20403;-90
2022/01/18 07:39:19;;;;;;;7.80;3.87;;;2.40;99.90;;;;;;5018095;28;20269;-90
2022/01/18 07:41:45;;;;;;;9.27;3.57;;;2.50;99.90;;;;;;5018144;28;20626;-90
2022/01/18 07:44:11;;;;;;;5.55;3.10;;;2.60;99.90;;;;;;5049024;28;20243;-90
2022/01/18 07:46:37;;;;;;;6.53;2.93;;;2.70;99.90;;;;;;5016937;28;20301;-90
2022/01/18 07:49:03;;;;;;;9.70;3.05;;;2.90;99.90;;;;;;5014046;28;20417;-90
2022/01/18 07:51:28;;;;;;;6.57;3.10;;;3.20;99.90;;;;;;5031186;28;20210;-89
2022/01/18 07:53:54;;;;;;;8.60;3.30;;;3.50;99.90;;;;;;5028114;28;20205;-88
2022/01/18 07:56:20;;;;;;;9.77;4.00;;;3.90;99.90;;;;;;5017969;28;20217;-89
2022/01/18 07:58:45;;;;;;;7.50;3.83;;;4.20;99.90;;;;;;5023404;28;20178;-90
2022/01/18 08:01:11;;;;;;;5.90;3.00;;;4.70;99.90;;;;;;5045831;28;20429;-90
2022/01/18 08:03:37;;;;;;;7.37;3.13;;;5.20;99.90;;;;;;5022340;28;20198;-89
2022/01/18 08:06:03;;;;;;;3.87;2.63;;;5.70;99.90;;;;;;5028113;28;20357;-90
2022/01/18 08:08:28;;;;;;;5.63;3.50;;;6.10;99.90;;;;;;5008577;28;20446;-90
2022/01/18 08:10:55;;;;;;;5.83;2.90;;;6.50;99.90;;;;;;5025090;28;20966;-90
2022/01/18 08:13:28;;;;;;;7.53;3.20;;;7.10;99.90;;;;;;5009787;28;20260;-89
2022/01/18 08:16:10;;;;;;;8.55;3.72;;;7.70;99.90;;;;;;5034454;28;20214;-90
2022/01/18 08:18:36;;;;;;;6.13;3.38;;;8.40;99.90;;;;;;5019999;28;20201;-90
2022/01/18 08:21:03;;;;;;;9.88;3.63;;;9.10;99.90;;;;;;5024570;28;20316;-89
2022/01/18 08:23:28;;;;;;;11.45;4.13;;;9.60;99.90;;;;;;5016727;28;20198;-89
2022/01/18 08:25:54;;;;;;;6.43;3.50;;;10.00;99.90;;;;;;5013304;28;20217;-90
2022/01/18 08:28:20;;;;;;;4.90;3.10;;;10.20;99.90;;;;;;5008380;28;20205;-86
2022/01/18 08:30:45;;;;;;;5.00;3.20;;;10.40;99.90;;;;;;5026666;28;20224;-86
2022/01/18 08:33:11;;;;;;;6.27;3.13;;;10.70;99.00;;;;;;4999426;28;20185;-88
2022/01/18 08:35:37;;;;;;;5.77;2.90;;;10.70;98.10;;;;;;4993296;28;20297;-90
2022/01/18 08:38:03;;;;;;;8.35;3.85;;;10.70;97.60;;;;;;5012973;28;20277;-89
2022/01/18 08:40:29;;;;;;;5.32;3.42;;;10.70;97.70;;;;;;5020046;28;20754;-90
2022/01/18 08:42:55;;;;;;;8.02;3.50;;;10.80;96.70;;;;;;5028836;28;20190;-88
2022/01/18 08:45:21;;;;;;;6.30;3.23;;;11.10;96.30;;;;;;5036898;28;20736;-86
2022/01/18 08:47:48;;;;;;;6.40;5.10;;;11.40;95.50;;;;;;4995845;28;20205;-87
2022/01/18 08:50:17;;;;;;;6.15;3.30;;;11.70;94.60;;;;;;5016763;28;20430;-87
2022/01/18 08:52:43;;;;;;;8.43;4.70;;;11.80;94.10;;;;;;5032630;28;20186;-89
2022/01/18 08:55:09;;;;;;;6.30;3.30;;;11.90;93.40;;;;;;5021958;28;20240;-88
2022/01/18 08:57:34;;;;;;;7.00;4.20;;;11.90;93.10;;;;;;5043218;28;20402;-88
2022/01/18 09:00:00;;;;;;;12.07;5.47;;;12.00;92.80;;;;;;5022993;28;20549;-89
2022/01/18 09:02:26;;;;;;;20.87;9.07;;;12.20;92.30;;;;;;5029927;28;20186;-88
2022/01/18 09:04:51;;;;;;;10.00;5.03;;;12.30;92.20;;;;;;5016948;28;20683;-87
2022/01/18 09:07:19;;;;;;;11.33;6.27;;;12.30;91.90;;;;;;5008613;28;20241;-88
2022/01/18 09:09:48;;;;;;;16.15;7.60;;;12.30;91.70;;;;;;5010842;28;20258;-88
2022/01/18 09:12:17;;;;;;;8.23;4.75;;;12.10;91.90;;;;;;4997928;28;20273;-88
2022/01/18 09:14:43;;;;;;;10.02;5.45;;;12.00;91.70;;;;;;5021942;28;20211;-89
2022/01/18 09:17:09;;;;;;;10.57;5.60;;;11.90;91.40;;;;;;5004660;28;20191;-88
2022/01/18 09:19:34;;;;;;;8.87;4.97;;;11.70;92.00;;;;;;5005871;28;20432;-88
2022/01/18 09:22:03;;;;;;;5.13;4.20;;;11.60;91.80;;;;;;5014161;28;20229;-88
2022/01/18 09:24:29;;;;;;;9.70;4.00;;;11.50;92.10;;;;;;5003880;28;20187;-88
2022/01/18 09:26:55;;;;;;;7.37;4.13;;;11.70;91.70;;;;;;5014380;28;20706;-90
2022/01/18 09:29:21;;;;;;;5.93;3.90;;;12.10;91.70;;;;;;5002559;28;20997;-89
2022/01/18 09:31:47;;;;;;;8.20;4.33;;;12.60;90.90;;;;;;5012234;28;20214;-88
2022/01/18 09:34:13;;;;;;;9.53;3.90;;;12.80;91.20;;;;;;5000154;28;20416;-88
2022/01/18 09:36:38;;;;;;;8.23;4.10;;;13.10;90.40;;;;;;4997461;28;20496;-87
2022/01/18 09:39:05;;;;;;;9.03;5.10;;;13.20;90.10;;;;;;4995697;28;20190;-88
2022/01/18 09:41:37;;;;;;;8.90;6.20;;;13.30;90.00;;;;;;4994526;28;20290;-88
2022/01/18 09:44:03;;;;;;;6.83;3.10;;;13.20;90.60;;;;;;5002271;28;20436;-89
2022/01/18 09:46:29;;;;;;;9.70;3.93;;;13.20;90.10;;;;;;4991320;28;20496;-88
2022/01/18 09:48:56;;;;;;;5.60;3.47;;;13.30;89.00;;;;;;4995623;28;20516;-88
2022/01/18 09:51:23;;;;;;;5.50;3.67;;;13.50;88.50;;;;;;4992862;28;20284;-89
2022/01/18 09:53:50;;;;;;;6.53;3.37;;;13.70;87.40;;;;;;5013027;28;20433;-88
2022/01/18 09:56:16;;;;;;;7.07;3.30;;;13.80;87.00;;;;;;4994761;28;20500;-88
2022/01/18 09:58:43;;;;;;;10.63;4.13;;;13.90;86.40;;;;;;5009037;28;20436;-88
2022/01/18 10:01:09;;;;;;;6.80;3.53;;;14.00;86.10;;;;;;5012239;28;20463;-88
2022/01/18 10:03:38;;;;;;;6.10;4.17;;;14.10;86.80;;;;;;5001305;28;20440;-89
2022/01/18 10:06:06;;;;;;;7.50;3.50;;;14.20;84.70;;;;;;5001028;28;20523;-88
2022/01/18 10:08:33;;;;;;;9.77;4.40;;;14.00;85.00;;;;;;5029341;28;20446;-88
2022/01/18 10:11:10;;;;;;;11.03;5.23;;;13.80;84.80;;;;;;5016257;28;20467;-88
2022/01/18 10:13:37;;;;;;;10.40;5.10;;;13.60;85.10;;;;;;5026142;28;20435;-90
2022/01/18 10:16:19;;;;;;;7.43;4.60;;;13.30;85.80;;;;;;5020335;28;20454;-88
2022/01/18 10:18:52;;;;;;;10.30;5.18;;;13.00;86.50;;;;;;5017321;28;20436;-89
2022/01/18 10:21:45;;;;;;;7.53;4.30;;;12.70;86.30;;;;;;5037443;28;20202;-89
2022/01/18 10:24:20;;;;;;;9.00;3.83;;;12.20;86.30;;;;;;5020666;28;20183;-89
2022/01/18 10:26:48;;;;;;;11.07;5.75;;;11.80;87.10;;;;;;5032358;28;20217;-89
2022/01/18 10:29:15;;;;;;;10.60;4.78;;;11.50;90.10;;;;;;5018334;28;20183;-89
2022/01/18 10:37:22;;;;;;;11.73;3.90;;;10.90;90.40;;;;;;5024929;28;20187;-89
2022/01/18 10:39:50;;;;;;;7.07;3.47;;;10.70;91.00;;;;;;5011657;28;20207;-89
2022/01/18 10:42:20;;;;;;;7.68;4.57;;;10.70;91.00;;;;;;5028239;28;20166;-90
2022/01/18 10:44:48;;;;;;;9.20;3.95;;;10.70;90.90;;;;;;5014913;28;20734;-88
2022/01/18 10:47:17;;;;;;;7.40;3.65;;;10.60;90.90;;;;;;5022894;28;20288;-90
2022/01/18 10:49:47;;;;;;;10.82;4.60;;;10.60;90.70;;;;;;5012552;28;20225;-88
2022/01/18 10:52:20;;;;;;;7.00;3.92;;;10.50;90.30;;;;;;5018551;28;20269;-90
2022/01/18 10:54:54;;;;;;;11.30;4.47;;;10.40;90.60;;;;;;5032981;28;20211;-89
2022/01/18 10:57:29;;;;;;;11.25;4.65;;;10.20;90.90;;;;;;5040226;28;20174;-89
2022/01/18 11:00:06;;;;;;;15.27;5.78;;;10.00;90.90;;;;;;5040197;28;20210;-89
2022/01/18 11:02:34;;;;;;;8.75;4.38;;;9.90;91.70;;;;;;5021287;28;20175;-91
2022/01/18 11:05:00;;;;;;;12.20;6.60;;;9.80;92.10;;;;;;5014923;28;20211;-88
2022/01/18 11:07:28;;;;;;;8.85;5.80;;;9.70;91.70;;;;;;5028315;28;20273;-89
2022/01/18 11:10:00;;;;;;;7.90;3.78;;;9.60;92.00;;;;;;5019264;28;20206;-88
2022/01/18 11:12:29;;;;;;;10.52;4.43;;;9.40;92.40;;;;;;5031426;28;20187;-89
2022/01/18 11:15:05;;;;;;;8.85;4.22;;;9.30;92.40;;;;;;5009585;28;20495;-89
2022/01/18 11:17:39;;;;;;;7.50;4.30;;;9.20;92.90;;;;;;5019005;28;20198;-89
2022/01/18 11:20:06;;;;;;;8.73;4.07;;;9.10;92.90;;;;;;5022632;28;20215;-89
2022/01/18 11:22:33;;;;;;;6.05;3.88;;;8.90;92.90;;;;;;5028008;28;20521;-89
2022/01/18 11:25:01;;;;;;;12.90;4.88;;;8.80;92.90;;;;;;5013602;28;20210;-90
2022/01/18 11:27:29;;;;;;;6.75;4.20;;;8.60;93.60;;;;;;5028912;28;20205;-89
2022/01/18 11:29:56;;;;;;;6.63;4.28;;;8.50;94.00;;;;;;5034141;28;20199;-89
2022/01/18 11:32:26;;;;;;;8.75;4.70;;;8.50;93.90;;;;;;5046394;28;20182;-89
2022/01/18 11:35:02;;;;;;;11.35;5.53;;;8.40;94.50;;;;;;5028917;28;20210;-90
2022/01/18 11:37:54;;;;;;;12.50;5.18;;;8.40;94.80;;;;;;5022139;28;20193;-90
2022/01/18 11:40:23;;;;;;;11.20;5.05;;;8.40;95.20;;;;;;5031083;28;20295;-90
2022/01/18 11:42:52;;;;;;;13.30;5.43;;;8.50;94.60;;;;;;5015313;28;20216;-89
2022/01/18 11:45:24;;;;;;;6.88;4.47;;;8.50;94.60;;;;;;5010667;28;20212;-89
2022/01/18 11:48:00;;;;;;;9.82;5.65;;;8.50;94.60;;;;;;5010285;28;20285;-88
2022/01/18 11:50:37;;;;;;;5.75;4.20;;;8.50;94.70;;;;;;5021302;28;20213;-87
2022/01/18 11:53:15;;;;;;;8.57;4.18;;;8.50;94.90;;;;;;4996118;28;20183;-88
2022/01/18 11:55:45;;;;;;;13.52;5.15;;;8.60;94.80;;;;;;5002609;28;20206;-89
2022/01/18 11:58:14;;;;;;;4.60;3.05;;;8.70;95.50;;;;;;5018588;28;20206;-89
2022/01/18 12:00:52;;;;;;;12.70;4.97;;;8.70;94.50;;;;;;5014693;28;20249;-89
2022/01/18 12:03:22;;;;;;;14.27;6.05;;;8.80;94.30;;;;;;5031624;28;20186;-88
2022/01/18 12:05:49;;;;;;;9.25;3.40;;;8.80;94.80;;;;;;5015522;28;20621;-87
2022/01/18 12:08:36;;;;;;;9.75;4.00;;;8.80;94.50;;;;;;5020387;28;20237;-88
2022/01/18 12:11:08;;;;;;;7.07;3.53;;;8.80;94.10;;;;;;5033297;28;20563;-88
2022/01/18 12:13:43;;;;;;;7.15;4.90;;;8.70;94.50;;;;;;5013892;28;20179;-88
2022/01/18 12:16:22;;;;;;;9.32;6.60;;;8.70;94.80;;;;;;5030264;28;20206;-88
2022/01/18 12:18:53;;;;;;;14.68;5.53;;;8.70;94.20;;;;;;5015237;28;20778;-87
2022/01/18 12:21:24;;;;;;;9.60;5.20;;;8.70;94.40;;;;;;5026556;28;20515;-88
2022/01/18 12:23:51;;;;;;;6.25;2.95;;;8.70;94.30;;;;;;5028087;28;20190;-89
2022/01/18 12:34:28;;;;;;;8.18;4.60;;;8.60;94.20;;;;;;5022103;28;20186;-89
2022/01/18 12:37:20;;;;;;;6.57;3.88;;;8.60;94.20;;;;;;5018807;28;20190;-87
2022/01/18 12:44:20;;;;;;;8.52;3.55;;;8.50;94.20;;;;;;5037173;28;20209;-88
2022/01/18 12:45:05;;;;;;;13.30;5.93;;;8.50;94.00;;;;;;5020156;28;20218;-90
2022/01/18 12:47:36;;;;;;;10.27;4.57;;;8.40;94.70;;;;;;5013665;28;20229;-90
2022/01/18 12:50:07;;;;;;;9.55;4.78;;;8.40;94.40;;;;;;5008371;28;20213;-88
2022/01/18 12:52:46;;;;;;;7.43;3.65;;;8.40;94.20;;;;;;5004962;28;20610;-87
2022/01/18 12:55:42;;;;;;;8.90;4.10;;;8.40;93.90;;;;;;5026230;28;20217;-88
2022/01/18 12:58:15;;;;;;;7.85;4.00;;;8.40;94.30;;;;;;5029281;28;20182;-89
2022/01/18 13:01:04;;;;;;;5.75;4.20;;;8.40;94.60;;;;;;5008827;28;20365;-88
2022/01/18 13:03:42;;;;;;;6.55;4.20;;;8.40;94.60;;;;;;5027029;28;20186;-89
2022/01/18 13:06:11;;;;;;;7.63;4.10;;;8.50;94.80;;;;;;5016574;28;20268;-90
2022/01/18 13:08:44;;;;;;;8.98;4.10;;;8.60;94.20;;;;;;5018964;28;20203;-89
2022/01/18 13:11:12;;;;;;;6.35;3.90;;;8.60;94.00;;;;;;5034915;28;20202;-87
2022/01/18 13:13:38;;;;;;;8.10;3.50;;;8.60;93.90;;;;;;5018275;28;20186;-87
2022/01/18 13:26:54;;;;;;;8.75;5.25;;;8.60;93.80;;;;;;5027148;28;20218;-87
2022/01/18 13:29:24;;;;;;;8.70;4.40;;;8.50;94.00;;;;;;5016220;28;20187;-87
2022/01/18 13:32:09;;;;;;;5.88;3.33;;;8.50;93.70;;;;;;5016720;28;20194;-89
2022/01/18 13:34:38;;;;;;;9.77;3.20;;;8.50;93.40;;;;;;5014860;28;20182;-89
2022/01/18 13:37:08;;;;;;;8.35;4.32;;;8.50;93.40;;;;;;5012054;28;20292;-90
2022/01/18 13:39:36;;;;;;;8.95;4.10;;;8.50;93.70;;;;;;5029115;28;20182;-89
2022/01/18 13:42:03;;;;;;;6.80;3.47;;;8.50;93.70;;;;;;5033516;28;21221;-90
2022/01/18 13:44:30;;;;;;;9.43;4.57;;;8.50;93.70;;;;;;5011049;28;20194;-91
2022/01/18 13:47:11;;;;;;;11.45;4.25;;;8.60;94.00;;;;;;5010572;28;20213;-89
2022/01/18 13:49:37;;;;;;;9.00;4.38;;;8.70;93.80;;;;;;5005000;28;20892;-89
2022/01/18 13:52:11;;;;;;;7.87;3.50;;;8.80;93.80;;;;;;5030131;28;20174;-89
2022/01/18 13:54:52;;;;;;;8.88;3.80;;;8.90;93.40;;;;;;5012592;28;20432;-91
2022/01/18 13:57:21;;;;;;;8.70;4.28;;;9.10;93.10;;;;;;5019689;28;20586;-88
2022/01/18 13:59:48;;;;;;;8.27;3.80;;;9.10;93.10;;;;;;5049413;28;20305;-90
2022/01/18 14:02:17;;;;;;;8.45;4.72;;;9.30;93.30;;;;;;5024454;28;20496;-89
2022/01/18 14:04:45;;;;;;;9.65;4.85;;;9.50;93.10;;;;;;5020741;28;20234;-90
2022/01/18 14:07:12;;;;;;;10.13;4.90;;;9.80;92.50;;;;;;5017778;28;20236;-89
2022/01/18 14:09:38;;;;;;;11.90;4.93;;;10.00;92.30;;;;;;5012934;28;20198;-90
2022/01/18 14:12:05;;;;;;;8.98;5.30;;;10.30;92.10;;;;;;5011873;28;20175;-88
2022/01/18 14:14:36;;;;;;;16.15;5.68;;;10.60;91.40;;;;;;5012457;28;20185;-90
2022/01/18 14:17:05;;;;;;;10.07;5.55;;;11.10;91.10;;;;;;5031445;28;20197;-89
2022/01/18 14:19:34;;;;;;;8.32;6.18;;;11.30;91.10;;;;;;5030834;28;20201;-88
2022/01/18 14:22:16;;;;;;;10.90;4.78;;;11.50;90.80;;;;;;5014843;28;20417;-92
2022/01/18 14:24:47;;;;;;;6.43;3.53;;;11.50;90.20;;;;;;5024918;28;22138;-89
2022/01/18 14:27:25;;;;;;;10.05;5.05;;;11.50;89.70;;;;;;5015652;28;20467;-91
2022/01/18 14:30:00;;;;;;;10.27;6.00;;;11.30;89.50;;;;;;5013883;28;20214;-91
2022/01/18 14:32:27;;;;;;;12.10;4.50;;;11.00;90.30;;;;;;5012903;28;20185;-89
2022/01/18 14:34:56;;;;;;;8.82;4.60;;;10.80;90.40;;;;;;5024029;28;20260;-91